sensor_id;sensor_type;location;lat;lon;timestamp;P1;durP1;ratioP1;P2;durP2;ratioP2
65751;SDS011;52486;51.098;13.770;2023-04-25T00:01:17;0.68;;;0.68;;
65751;SDS011;52486;51.098;13.770;2023-04-25T00:03:44;1.10;;;0.82;;
65751;SDS011;52486;51.098;13.770;2023-04-25T00:06:10;2.70;;;0.90;;
65751;SDS011;52486;51.098;13.770;2023-04-25T00:08:36;1.30;;;0.80;;
65751;SDS011;52486;51.098;13.770;2023-04-25T00:11:02;0.95;;;0.80;;
65751;SDS011;52486;51.098;13.770;2023-04-25T00:13:28;0.93;;;0.77;;
65751;SDS011;52486;51.098;13.770;2023-04-25T00:15:54;0.65;;;0.65;;
65751;SDS011;52486;51.098;13.770;2023-04-25T00:18:25;0.65;;;0.60;;
65751;SDS011;52486;51.098;13.770;2023-04-25T00:20:54;0.50;;;0.47;;
65751;SDS011;52486;51.098;13.770;2023-04-25T00:23:20;0.98;;;0.80;;
65751;SDS011;52486;51.098;13.770;2023-04-25T00:25:47;2.25;;;0.80;;
65751;SDS011;52486;51.098;13.770;2023-04-25T00:28:13;0.70;;;0.70;;
65751;SDS011;52486;51.098;13.770;2023-04-25T00:30:40;0.90;;;0.80;;
65751;SDS011;52486;51.098;13.770;2023-04-25T00:33:06;0.77;;;0.77;;
65751;SDS011;52486;51.098;13.770;2023-04-25T00:35:33;0.63;;;0.63;;
65751;SDS011;52486;51.098;13.770;2023-04-25T00:37:59;1.45;;;0.90;;
65751;SDS011;52486;51.098;13.770;2023-04-25T00:40:26;0.90;;;0.70;;
65751;SDS011;52486;51.098;13.770;2023-04-25T00:42:52;0.80;;;0.80;;
65751;SDS011;52486;51.098;13.770;2023-04-25T00:45:18;0.73;;;0.70;;
65751;SDS011;52486;51.098;13.770;2023-04-25T00:47:45;0.77;;;0.70;;
65751;SDS011;52486;51.098;13.770;2023-04-25T00:50:12;0.80;;;0.80;;
65751;SDS011;52486;51.098;13.770;2023-04-25T00:52:43;1.08;;;0.85;;
65751;SDS011;52486;51.098;13.770;2023-04-25T00:55:10;2.22;;;0.88;;
65751;SDS011;52486;51.098;13.770;2023-04-25T00:57:36;0.75;;;0.60;;
65751;SDS011;52486;51.098;13.770;2023-04-25T01:00:04;0.90;;;0.80;;
65751;SDS011;52486;51.098;13.770;2023-04-25T01:02:31;0.80;;;0.80;;
65751;SDS011;52486;51.098;13.770;2023-04-25T01:04:58;0.90;;;0.80;;
65751;SDS011;52486;51.098;13.770;2023-04-25T01:07:24;0.75;;;0.73;;
65751;SDS011;52486;51.098;13.770;2023-04-25T01:09:51;0.60;;;0.60;;
65751;SDS011;52486;51.098;13.770;2023-04-25T01:12:17;0.50;;;0.50;;
65751;SDS011;52486;51.098;13.770;2023-04-25T01:14:43;1.80;;;0.75;;
65751;SDS011;52486;51.098;13.770;2023-04-25T01:17:09;0.70;;;0.65;;
65751;SDS011;52486;51.098;13.770;2023-04-25T01:19:36;1.17;;;0.90;;
65751;SDS011;52486;51.098;13.770;2023-04-25T01:22:02;1.20;;;0.85;;
65751;SDS011;52486;51.098;13.770;2023-04-25T01:24:29;0.68;;;0.68;;
65751;SDS011;52486;51.098;13.770;2023-04-25T01:26:55;0.95;;;0.68;;
65751;SDS011;52486;51.098;13.770;2023-04-25T01:29:21;1.75;;;0.80;;
65751;SDS011;52486;51.098;13.770;2023-04-25T01:31:48;0.80;;;0.70;;
65751;SDS011;52486;51.098;13.770;2023-04-25T01:34:14;0.93;;;0.80;;
65751;SDS011;52486;51.098;13.770;2023-04-25T01:36:40;0.68;;;0.68;;
65751;SDS011;52486;51.098;13.770;2023-04-25T01:39:06;0.73;;;0.70;;
65751;SDS011;52486;51.098;13.770;2023-04-25T01:41:32;0.82;;;0.63;;
65751;SDS011;52486;51.098;13.770;2023-04-25T01:43:59;0.60;;;0.60;;
65751;SDS011;52486;51.098;13.770;2023-04-25T01:46:25;1.05;;;0.70;;
65751;SDS011;52486;51.098;13.770;2023-04-25T01:48:51;1.05;;;0.75;;
65751;SDS011;52486;51.098;13.770;2023-04-25T01:51:18;0.80;;;0.68;;
65751;SDS011;52486;51.098;13.770;2023-04-25T01:53:44;0.75;;;0.75;;
65751;SDS011;52486;51.098;13.770;2023-04-25T01:56:10;0.63;;;0.63;;
65751;SDS011;52486;51.098;13.770;2023-04-25T01:58:36;0.75;;;0.65;;
65751;SDS011;52486;51.098;13.770;2023-04-25T02:01:02;0.70;;;0.70;;
65751;SDS011;52486;51.098;13.770;2023-04-25T02:03:29;1.00;;;0.90;;
65751;SDS011;52486;51.098;13.770;2023-04-25T02:05:55;1.33;;;0.70;;
65751;SDS011;52486;51.098;13.770;2023-04-25T02:08:21;0.60;;;0.60;;
65751;SDS011;52486;51.098;13.770;2023-04-25T02:10:47;1.00;;;0.88;;
65751;SDS011;52486;51.098;13.770;2023-04-25T02:13:13;0.82;;;0.73;;
65751;SDS011;52486;51.098;13.770;2023-04-25T02:15:39;1.05;;;0.70;;
65751;SDS011;52486;51.098;13.770;2023-04-25T02:18:06;0.93;;;0.70;;
65751;SDS011;52486;51.098;13.770;2023-04-25T02:20:32;0.90;;;0.90;;
65751;SDS011;52486;51.098;13.770;2023-04-25T02:22:58;2.25;;;0.70;;
65751;SDS011;52486;51.098;13.770;2023-04-25T02:25:24;0.73;;;0.73;;
65751;SDS011;52486;51.098;13.770;2023-04-25T02:27:50;1.27;;;0.80;;
65751;SDS011;52486;51.098;13.770;2023-04-25T02:30:16;0.90;;;0.80;;
65751;SDS011;52486;51.098;13.770;2023-04-25T02:32:43;0.85;;;0.68;;
65751;SDS011;52486;51.098;13.770;2023-04-25T02:35:09;1.35;;;0.70;;
65751;SDS011;52486;51.098;13.770;2023-04-25T02:37:38;1.92;;;0.65;;
65751;SDS011;52486;51.098;13.770;2023-04-25T02:40:05;1.63;;;0.75;;
65751;SDS011;52486;51.098;13.770;2023-04-25T02:42:31;1.33;;;0.77;;
65751;SDS011;52486;51.098;13.770;2023-04-25T02:44:57;0.70;;;0.60;;
65751;SDS011;52486;51.098;13.770;2023-04-25T02:47:24;0.70;;;0.70;;
65751;SDS011;52486;51.098;13.770;2023-04-25T02:49:50;0.80;;;0.80;;
65751;SDS011;52486;51.098;13.770;2023-04-25T02:52:16;0.90;;;0.80;;
65751;SDS011;52486;51.098;13.770;2023-04-25T02:54:42;0.95;;;0.95;;
65751;SDS011;52486;51.098;13.770;2023-04-25T02:57:08;0.75;;;0.75;;
65751;SDS011;52486;51.098;13.770;2023-04-25T02:59:34;1.08;;;0.82;;
65751;SDS011;52486;51.098;13.770;2023-04-25T03:02:00;0.68;;;0.63;;
65751;SDS011;52486;51.098;13.770;2023-04-25T03:04:26;0.70;;;0.70;;
65751;SDS011;52486;51.098;13.770;2023-04-25T03:06:53;0.80;;;0.80;;
65751;SDS011;52486;51.098;13.770;2023-04-25T03:09:19;1.15;;;0.80;;
65751;SDS011;52486;51.098;13.770;2023-04-25T03:11:45;0.70;;;0.70;;
65751;SDS011;52486;51.098;13.770;2023-04-25T03:14:11;0.90;;;0.90;;
65751;SDS011;52486;51.098;13.770;2023-04-25T03:16:38;0.80;;;0.77;;
65751;SDS011;52486;51.098;13.770;2023-04-25T03:19:04;2.92;;;0.90;;
65751;SDS011;52486;51.098;13.770;2023-04-25T03:21:31;1.80;;;0.80;;
65751;SDS011;52486;51.098;13.770;2023-04-25T03:23:57;0.88;;;0.70;;
65751;SDS011;52486;51.098;13.770;2023-04-25T03:26:23;0.93;;;0.70;;
65751;SDS011;52486;51.098;13.770;2023-04-25T03:28:50;0.80;;;0.80;;
65751;SDS011;52486;51.098;13.770;2023-04-25T03:31:16;0.70;;;0.70;;
65751;SDS011;52486;51.098;13.770;2023-04-25T03:33:42;0.80;;;0.80;;
65751;SDS011;52486;51.098;13.770;2023-04-25T03:36:08;0.82;;;0.77;;
65751;SDS011;52486;51.098;13.770;2023-04-25T03:38:34;1.08;;;0.80;;
65751;SDS011;52486;51.098;13.770;2023-04-25T03:41:01;1.35;;;0.75;;
65751;SDS011;52486;51.098;13.770;2023-04-25T03:43:27;0.85;;;0.80;;
65751;SDS011;52486;51.098;13.770;2023-04-25T03:45:53;1.10;;;1.00;;
65751;SDS011;52486;51.098;13.770;2023-04-25T03:48:19;1.50;;;0.80;;
65751;SDS011;52486;51.098;13.770;2023-04-25T03:50:52;0.77;;;0.70;;
65751;SDS011;52486;51.098;13.770;2023-04-25T03:53:18;1.30;;;0.77;;
65751;SDS011;52486;51.098;13.770;2023-04-25T03:55:45;1.33;;;0.77;;
65751;SDS011;52486;51.098;13.770;2023-04-25T03:58:11;3.20;;;0.90;;
65751;SDS011;52486;51.098;13.770;2023-04-25T04:00:37;0.73;;;0.70;;
65751;SDS011;52486;51.098;13.770;2023-04-25T04:03:03;1.00;;;1.00;;
65751;SDS011;52486;51.098;13.770;2023-04-25T04:05:29;0.70;;;0.70;;
65751;SDS011;52486;51.098;13.770;2023-04-25T04:07:56;0.70;;;0.70;;
65751;SDS011;52486;51.098;13.770;2023-04-25T04:10:22;0.95;;;0.77;;
65751;SDS011;52486;51.098;13.770;2023-04-25T04:12:48;1.77;;;0.73;;
65751;SDS011;52486;51.098;13.770;2023-04-25T04:15:14;0.80;;;0.80;;
65751;SDS011;52486;51.098;13.770;2023-04-25T04:17:40;1.75;;;0.88;;
65751;SDS011;52486;51.098;13.770;2023-04-25T04:20:06;1.20;;;0.82;;
65751;SDS011;52486;51.098;13.770;2023-04-25T04:22:33;0.80;;;0.75;;
65751;SDS011;52486;51.098;13.770;2023-04-25T04:24:59;0.90;;;0.80;;
65751;SDS011;52486;51.098;13.770;2023-04-25T04:27:24;1.35;;;0.90;;
65751;SDS011;52486;51.098;13.770;2023-04-25T04:29:51;1.52;;;0.82;;
65751;SDS011;52486;51.098;13.770;2023-04-25T04:32:18;0.93;;;0.80;;
65751;SDS011;52486;51.098;13.770;2023-04-25T04:34:43;0.73;;;0.73;;
65751;SDS011;52486;51.098;13.770;2023-04-25T04:37:09;1.00;;;0.95;;
65751;SDS011;52486;51.098;13.770;2023-04-25T04:39:37;1.25;;;0.95;;
65751;SDS011;52486;51.098;13.770;2023-04-25T04:42:03;0.95;;;0.85;;
65751;SDS011;52486;51.098;13.770;2023-04-25T04:44:30;1.20;;;0.90;;
65751;SDS011;52486;51.098;13.770;2023-04-25T04:46:59;0.70;;;0.70;;
65751;SDS011;52486;51.098;13.770;2023-04-25T04:49:25;1.83;;;0.80;;
65751;SDS011;52486;51.098;13.770;2023-04-25T04:51:51;0.80;;;0.80;;
65751;SDS011;52486;51.098;13.770;2023-04-25T04:54:17;1.40;;;0.93;;
65751;SDS011;52486;51.098;13.770;2023-04-25T04:56:43;1.10;;;0.90;;
65751;SDS011;52486;51.098;13.770;2023-04-25T04:59:08;1.55;;;0.73;;
65751;SDS011;52486;51.098;13.770;2023-04-25T05:01:34;0.65;;;0.65;;
65751;SDS011;52486;51.098;13.770;2023-04-25T05:04:02;0.90;;;0.70;;
65751;SDS011;52486;51.098;13.770;2023-04-25T05:06:29;0.75;;;0.75;;
65751;SDS011;52486;51.098;13.770;2023-04-25T05:08:58;0.70;;;0.68;;
65751;SDS011;52486;51.098;13.770;2023-04-25T05:11:24;0.70;;;0.65;;
65751;SDS011;52486;51.098;13.770;2023-04-25T05:13:53;4.10;;;0.77;;
65751;SDS011;52486;51.098;13.770;2023-04-25T05:16:19;1.00;;;0.73;;
65751;SDS011;52486;51.098;13.770;2023-04-25T05:18:45;0.70;;;0.70;;
65751;SDS011;52486;51.098;13.770;2023-04-25T05:21:12;2.63;;;0.95;;
65751;SDS011;52486;51.098;13.770;2023-04-25T05:23:37;1.15;;;0.75;;
65751;SDS011;52486;51.098;13.770;2023-04-25T05:26:03;0.70;;;0.70;;
65751;SDS011;52486;51.098;13.770;2023-04-25T05:28:30;2.28;;;0.80;;
65751;SDS011;52486;51.098;13.770;2023-04-25T05:30:56;0.80;;;0.80;;
65751;SDS011;52486;51.098;13.770;2023-04-25T05:33:21;0.80;;;0.70;;
65751;SDS011;52486;51.098;13.770;2023-04-25T05:35:47;1.83;;;0.80;;
65751;SDS011;52486;51.098;13.770;2023-04-25T05:38:15;3.45;;;1.38;;
65751;SDS011;52486;51.098;13.770;2023-04-25T05:40:40;5.82;;;2.60;;
65751;SDS011;52486;51.098;13.770;2023-04-25T05:43:06;10.50;;;3.13;;
65751;SDS011;52486;51.098;13.770;2023-04-25T05:45:32;13.65;;;2.90;;
65751;SDS011;52486;51.098;13.770;2023-04-25T05:47:58;7.80;;;3.05;;
65751;SDS011;52486;51.098;13.770;2023-04-25T05:50:24;7.35;;;2.30;;
65751;SDS011;52486;51.098;13.770;2023-04-25T05:52:50;5.85;;;2.60;;
65751;SDS011;52486;51.098;13.770;2023-04-25T05:55:16;6.55;;;2.72;;
65751;SDS011;52486;51.098;13.770;2023-04-25T05:57:42;6.32;;;2.35;;
65751;SDS011;52486;51.098;13.770;2023-04-25T06:00:10;6.30;;;2.60;;
65751;SDS011;52486;51.098;13.770;2023-04-25T06:02:37;4.20;;;2.20;;
65751;SDS011;52486;51.098;13.770;2023-04-25T06:05:03;3.55;;;2.13;;
65751;SDS011;52486;51.098;13.770;2023-04-25T06:07:29;7.03;;;2.30;;
65751;SDS011;52486;51.098;13.770;2023-04-25T06:09:56;8.55;;;2.72;;
65751;SDS011;52486;51.098;13.770;2023-04-25T06:12:21;2.88;;;2.20;;
65751;SDS011;52486;51.098;13.770;2023-04-25T06:14:47;6.85;;;2.50;;
65751;SDS011;52486;51.098;13.770;2023-04-25T06:17:13;6.40;;;2.25;;
65751;SDS011;52486;51.098;13.770;2023-04-25T06:19:39;4.85;;;2.28;;
65751;SDS011;52486;51.098;13.770;2023-04-25T06:22:05;4.55;;;2.20;;
65751;SDS011;52486;51.098;13.770;2023-04-25T06:24:32;5.60;;;1.98;;
65751;SDS011;52486;51.098;13.770;2023-04-25T06:26:58;5.57;;;2.28;;
65751;SDS011;52486;51.098;13.770;2023-04-25T06:29:24;5.25;;;2.45;;
65751;SDS011;52486;51.098;13.770;2023-04-25T06:31:50;4.03;;;1.73;;
65751;SDS011;52486;51.098;13.770;2023-04-25T06:34:16;4.53;;;1.58;;
65751;SDS011;52486;51.098;13.770;2023-04-25T06:36:43;4.32;;;1.60;;
65751;SDS011;52486;51.098;13.770;2023-04-25T06:39:09;3.42;;;1.50;;
65751;SDS011;52486;51.098;13.770;2023-04-25T06:41:35;7.78;;;1.52;;
65751;SDS011;52486;51.098;13.770;2023-04-25T06:44:01;6.38;;;1.75;;
65751;SDS011;52486;51.098;13.770;2023-04-25T06:46:27;2.25;;;1.30;;
65751;SDS011;52486;51.098;13.770;2023-04-25T06:48:53;8.30;;;1.50;;
65751;SDS011;52486;51.098;13.770;2023-04-25T06:51:19;7.45;;;1.60;;
65751;SDS011;52486;51.098;13.770;2023-04-25T06:53:45;2.72;;;1.25;;
65751;SDS011;52486;51.098;13.770;2023-04-25T06:56:11;4.50;;;1.45;;
65751;SDS011;52486;51.098;13.770;2023-04-25T06:58:37;5.30;;;1.30;;
65751;SDS011;52486;51.098;13.770;2023-04-25T07:01:02;4.45;;;1.25;;
65751;SDS011;52486;51.098;13.770;2023-04-25T07:03:28;2.05;;;1.58;;
65751;SDS011;52486;51.098;13.770;2023-04-25T07:05:54;2.53;;;1.67;;
65751;SDS011;52486;51.098;13.770;2023-04-25T07:08:20;6.60;;;1.48;;
65751;SDS011;52486;51.098;13.770;2023-04-25T07:10:46;4.35;;;2.03;;
65751;SDS011;52486;51.098;13.770;2023-04-25T07:13:12;3.75;;;1.50;;
65751;SDS011;52486;51.098;13.770;2023-04-25T07:15:38;5.53;;;1.63;;
65751;SDS011;52486;51.098;13.770;2023-04-25T07:18:03;5.13;;;1.50;;
65751;SDS011;52486;51.098;13.770;2023-04-25T07:20:30;2.33;;;1.73;;
65751;SDS011;52486;51.098;13.770;2023-04-25T07:22:56;2.75;;;1.30;;
65751;SDS011;52486;51.098;13.770;2023-04-25T07:25:22;5.43;;;1.85;;
65751;SDS011;52486;51.098;13.770;2023-04-25T07:27:48;4.20;;;1.55;;
65751;SDS011;52486;51.098;13.770;2023-04-25T07:30:14;3.90;;;1.73;;
65751;SDS011;52486;51.098;13.770;2023-04-25T07:32:40;4.53;;;1.60;;
65751;SDS011;52486;51.098;13.770;2023-04-25T07:35:06;6.28;;;1.70;;
65751;SDS011;52486;51.098;13.770;2023-04-25T07:37:35;5.32;;;1.70;;
65751;SDS011;52486;51.098;13.770;2023-04-25T07:40:02;3.60;;;1.30;;
65751;SDS011;52486;51.098;13.770;2023-04-25T07:42:29;6.60;;;1.60;;
65751;SDS011;52486;51.098;13.770;2023-04-25T07:44:55;7.50;;;1.65;;
65751;SDS011;52486;51.098;13.770;2023-04-25T07:47:21;6.20;;;1.65;;
65751;SDS011;52486;51.098;13.770;2023-04-25T07:49:47;2.63;;;1.30;;
65751;SDS011;52486;51.098;13.770;2023-04-25T07:52:13;3.72;;;1.65;;
65751;SDS011;52486;51.098;13.770;2023-04-25T07:54:39;3.60;;;1.80;;
65751;SDS011;52486;51.098;13.770;2023-04-25T07:57:05;5.88;;;1.75;;
65751;SDS011;52486;51.098;13.770;2023-04-25T07:59:31;6.13;;;1.77;;
65751;SDS011;52486;51.098;13.770;2023-04-25T08:01:57;6.85;;;1.50;;
65751;SDS011;52486;51.098;13.770;2023-04-25T08:04:24;6.50;;;1.63;;
65751;SDS011;52486;51.098;13.770;2023-04-25T08:06:50;4.32;;;1.50;;
65751;SDS011;52486;51.098;13.770;2023-04-25T08:09:17;3.67;;;1.60;;
65751;SDS011;52486;51.098;13.770;2023-04-25T08:11:43;4.13;;;1.77;;
65751;SDS011;52486;51.098;13.770;2023-04-25T08:14:09;3.67;;;1.60;;
65751;SDS011;52486;51.098;13.770;2023-04-25T08:16:36;7.28;;;1.65;;
65751;SDS011;52486;51.098;13.770;2023-04-25T08:19:02;4.38;;;1.83;;
65751;SDS011;52486;51.098;13.770;2023-04-25T08:21:29;4.10;;;1.40;;
65751;SDS011;52486;51.098;13.770;2023-04-25T08:23:55;6.32;;;1.73;;
65751;SDS011;52486;51.098;13.770;2023-04-25T08:26:22;9.35;;;1.45;;
65751;SDS011;52486;51.098;13.770;2023-04-25T08:28:48;5.40;;;1.75;;
65751;SDS011;52486;51.098;13.770;2023-04-25T08:31:13;3.53;;;1.33;;
65751;SDS011;52486;51.098;13.770;2023-04-25T08:33:40;3.63;;;1.85;;
65751;SDS011;52486;51.098;13.770;2023-04-25T08:36:12;5.07;;;1.50;;
65751;SDS011;52486;51.098;13.770;2023-04-25T08:38:38;6.60;;;1.88;;
65751;SDS011;52486;51.098;13.770;2023-04-25T08:41:04;5.20;;;1.40;;
65751;SDS011;52486;51.098;13.770;2023-04-25T08:43:31;6.40;;;1.77;;
65751;SDS011;52486;51.098;13.770;2023-04-25T08:46:01;3.97;;;1.50;;
65751;SDS011;52486;51.098;13.770;2023-04-25T08:48:28;4.50;;;1.42;;
65751;SDS011;52486;51.098;13.770;2023-04-25T08:50:57;7.45;;;1.63;;
65751;SDS011;52486;51.098;13.770;2023-04-25T08:53:30;5.18;;;1.35;;
65751;SDS011;52486;51.098;13.770;2023-04-25T08:55:59;4.82;;;1.30;;
65751;SDS011;52486;51.098;13.770;2023-04-25T08:58:29;2.75;;;1.50;;
65751;SDS011;52486;51.098;13.770;2023-04-25T09:00:55;2.97;;;1.40;;
65751;SDS011;52486;51.098;13.770;2023-04-25T09:03:20;3.58;;;1.48;;
65751;SDS011;52486;51.098;13.770;2023-04-25T09:05:47;4.18;;;1.65;;
65751;SDS011;52486;51.098;13.770;2023-04-25T09:08:12;6.68;;;1.55;;
65751;SDS011;52486;51.098;13.770;2023-04-25T09:10:40;2.47;;;1.40;;
65751;SDS011;52486;51.098;13.770;2023-04-25T09:13:08;2.60;;;1.23;;
65751;SDS011;52486;51.098;13.770;2023-04-25T09:18:31;1.83;;;1.13;;
65751;SDS011;52486;51.098;13.770;2023-04-25T09:21:04;3.63;;;1.33;;
65751;SDS011;52486;51.098;13.770;2023-04-25T09:23:30;2.88;;;1.35;;
65751;SDS011;52486;51.098;13.770;2023-04-25T09:26:04;3.85;;;1.65;;
65751;SDS011;52486;51.098;13.770;2023-04-25T09:28:33;5.07;;;1.63;;
65751;SDS011;52486;51.098;13.770;2023-04-25T09:31:00;4.82;;;1.58;;
65751;SDS011;52486;51.098;13.770;2023-04-25T09:33:30;14.57;;;1.75;;
65751;SDS011;52486;51.098;13.770;2023-04-25T09:36:03;5.38;;;1.48;;
65751;SDS011;52486;51.098;13.770;2023-04-25T09:38:31;7.07;;;1.50;;
65751;SDS011;52486;51.098;13.770;2023-04-25T09:40:57;4.55;;;1.42;;
65751;SDS011;52486;51.098;13.770;2023-04-25T09:43:24;4.75;;;1.50;;
65751;SDS011;52486;51.098;13.770;2023-04-25T09:45:50;5.05;;;1.30;;
65751;SDS011;52486;51.098;13.770;2023-04-25T09:48:19;11.55;;;1.80;;
65751;SDS011;52486;51.098;13.770;2023-04-25T09:53:41;2.17;;;1.15;;
65751;SDS011;52486;51.098;13.770;2023-04-25T09:56:09;6.28;;;1.73;;
65751;SDS011;52486;51.098;13.770;2023-04-25T09:58:36;3.97;;;1.27;;
65751;SDS011;52486;51.098;13.770;2023-04-25T10:01:05;3.03;;;1.42;;
65751;SDS011;52486;51.098;13.770;2023-04-25T10:03:32;3.20;;;1.25;;
65751;SDS011;52486;51.098;13.770;2023-04-25T10:05:59;2.33;;;1.23;;
65751;SDS011;52486;51.098;13.770;2023-04-25T10:08:27;2.38;;;1.30;;
65751;SDS011;52486;51.098;13.770;2023-04-25T10:10:56;8.85;;;1.60;;
65751;SDS011;52486;51.098;13.770;2023-04-25T10:13:22;3.63;;;1.35;;
65751;SDS011;52486;51.098;13.770;2023-04-25T10:15:49;4.65;;;1.20;;
65751;SDS011;52486;51.098;13.770;2023-04-25T10:18:15;3.88;;;1.33;;
65751;SDS011;52486;51.098;13.770;2023-04-25T10:20:43;2.05;;;1.23;;
65751;SDS011;52486;51.098;13.770;2023-04-25T10:23:13;3.55;;;1.23;;
65751;SDS011;52486;51.098;13.770;2023-04-25T10:25:40;6.40;;;1.45;;
65751;SDS011;52486;51.098;13.770;2023-04-25T10:28:06;5.60;;;1.27;;
65751;SDS011;52486;51.098;13.770;2023-04-25T10:30:32;1.88;;;1.15;;
65751;SDS011;52486;51.098;13.770;2023-04-25T10:32:59;6.45;;;1.55;;
65751;SDS011;52486;51.098;13.770;2023-04-25T10:38:05;3.17;;;1.20;;
65751;SDS011;52486;51.098;13.770;2023-04-25T10:40:34;4.18;;;1.80;;
65751;SDS011;52486;51.098;13.770;2023-04-25T10:48:30;3.88;;;1.60;;
65751;SDS011;52486;51.098;13.770;2023-04-25T10:51:07;4.22;;;1.27;;
65751;SDS011;52486;51.098;13.770;2023-04-25T10:53:33;6.88;;;2.00;;
65751;SDS011;52486;51.098;13.770;2023-04-25T10:55:59;6.93;;;1.83;;
65751;SDS011;52486;51.098;13.770;2023-04-25T10:58:26;5.15;;;1.73;;
65751;SDS011;52486;51.098;13.770;2023-04-25T11:00:52;5.95;;;1.30;;
65751;SDS011;52486;51.098;13.770;2023-04-25T11:03:20;4.93;;;1.30;;
65751;SDS011;52486;51.098;13.770;2023-04-25T11:05:48;4.30;;;1.90;;
65751;SDS011;52486;51.098;13.770;2023-04-25T11:08:15;8.68;;;1.90;;
65751;SDS011;52486;51.098;13.770;2023-04-25T11:10:48;6.10;;;1.70;;
65751;SDS011;52486;51.098;13.770;2023-04-25T11:13:14;5.03;;;1.50;;
65751;SDS011;52486;51.098;13.770;2023-04-25T11:15:40;10.65;;;1.88;;
65751;SDS011;52486;51.098;13.770;2023-04-25T11:18:06;8.80;;;1.60;;
65751;SDS011;52486;51.098;13.770;2023-04-25T11:20:32;6.88;;;1.35;;
65751;SDS011;52486;51.098;13.770;2023-04-25T11:23:06;2.20;;;1.20;;
65751;SDS011;52486;51.098;13.770;2023-04-25T11:25:32;2.72;;;1.10;;
65751;SDS011;52486;51.098;13.770;2023-04-25T11:27:58;2.88;;;1.30;;
65751;SDS011;52486;51.098;13.770;2023-04-25T11:30:26;5.35;;;1.33;;
65751;SDS011;52486;51.098;13.770;2023-04-25T11:32:53;4.90;;;1.20;;
65751;SDS011;52486;51.098;13.770;2023-04-25T11:35:19;2.58;;;1.13;;
65751;SDS011;52486;51.098;13.770;2023-04-25T11:37:48;5.45;;;1.52;;
65751;SDS011;52486;51.098;13.770;2023-04-25T11:40:15;3.97;;;1.10;;
65751;SDS011;52486;51.098;13.770;2023-04-25T11:42:45;3.63;;;1.20;;
65751;SDS011;52486;51.098;13.770;2023-04-25T11:45:12;4.47;;;1.42;;
65751;SDS011;52486;51.098;13.770;2023-04-25T11:47:38;5.03;;;1.52;;
65751;SDS011;52486;51.098;13.770;2023-04-25T11:50:06;8.45;;;1.55;;
65751;SDS011;52486;51.098;13.770;2023-04-25T11:52:36;5.15;;;1.27;;
65751;SDS011;52486;51.098;13.770;2023-04-25T11:55:09;8.75;;;1.75;;
65751;SDS011;52486;51.098;13.770;2023-04-25T11:57:38;4.15;;;1.40;;
65751;SDS011;52486;51.098;13.770;2023-04-25T12:00:08;3.42;;;1.20;;
65751;SDS011;52486;51.098;13.770;2023-04-25T12:02:51;12.25;;;1.48;;
65751;SDS011;52486;51.098;13.770;2023-04-25T12:05:19;5.13;;;1.38;;
65751;SDS011;52486;51.098;13.770;2023-04-25T12:07:45;4.03;;;1.15;;
65751;SDS011;52486;51.098;13.770;2023-04-25T12:10:12;2.55;;;1.30;;
65751;SDS011;52486;51.098;13.770;2023-04-25T12:12:43;3.88;;;1.17;;
65751;SDS011;52486;51.098;13.770;2023-04-25T12:15:23;3.00;;;1.30;;
65751;SDS011;52486;51.098;13.770;2023-04-25T12:17:50;3.45;;;1.17;;
65751;SDS011;52486;51.098;13.770;2023-04-25T12:20:17;6.03;;;1.27;;
65751;SDS011;52486;51.098;13.770;2023-04-25T12:22:46;4.65;;;1.13;;
65751;SDS011;52486;51.098;13.770;2023-04-25T12:25:12;4.70;;;1.30;;
65751;SDS011;52486;51.098;13.770;2023-04-25T12:27:39;3.90;;;1.25;;
65751;SDS011;52486;51.098;13.770;2023-04-25T12:30:07;3.28;;;1.15;;
65751;SDS011;52486;51.098;13.770;2023-04-25T12:32:33;6.57;;;1.20;;
65751;SDS011;52486;51.098;13.770;2023-04-25T12:34:59;5.32;;;1.48;;
65751;SDS011;52486;51.098;13.770;2023-04-25T12:37:25;4.32;;;1.55;;
65751;SDS011;52486;51.098;13.770;2023-04-25T12:39:51;6.90;;;1.50;;
65751;SDS011;52486;51.098;13.770;2023-04-25T12:42:17;6.18;;;1.55;;
65751;SDS011;52486;51.098;13.770;2023-04-25T12:44:44;4.70;;;1.88;;
65751;SDS011;52486;51.098;13.770;2023-04-25T12:47:11;6.35;;;1.98;;
65751;SDS011;52486;51.098;13.770;2023-04-25T12:49:37;6.55;;;1.95;;
65751;SDS011;52486;51.098;13.770;2023-04-25T12:52:03;6.88;;;1.90;;
65751;SDS011;52486;51.098;13.770;2023-04-25T12:54:30;6.57;;;1.70;;
65751;SDS011;52486;51.098;13.770;2023-04-25T12:56:56;5.15;;;1.80;;
65751;SDS011;52486;51.098;13.770;2023-04-25T12:59:22;6.63;;;1.70;;
65751;SDS011;52486;51.098;13.770;2023-04-25T13:01:48;3.60;;;1.50;;
65751;SDS011;52486;51.098;13.770;2023-04-25T13:04:14;10.32;;;2.00;;
65751;SDS011;52486;51.098;13.770;2023-04-25T13:06:40;21.55;;;1.95;;
65751;SDS011;52486;51.098;13.770;2023-04-25T13:09:06;3.08;;;1.67;;
65751;SDS011;52486;51.098;13.770;2023-04-25T13:11:32;9.38;;;1.85;;
65751;SDS011;52486;51.098;13.770;2023-04-25T13:13:58;4.65;;;1.60;;
65751;SDS011;52486;51.098;13.770;2023-04-25T13:16:25;10.70;;;1.98;;
65751;SDS011;52486;51.098;13.770;2023-04-25T13:18:51;5.05;;;1.50;;
65751;SDS011;52486;51.098;13.770;2023-04-25T13:21:17;3.30;;;1.55;;
65751;SDS011;52486;51.098;13.770;2023-04-25T13:23:43;3.22;;;1.60;;
65751;SDS011;52486;51.098;13.770;2023-04-25T13:26:12;8.30;;;2.05;;
65751;SDS011;52486;51.098;13.770;2023-04-25T13:28:41;6.00;;;1.40;;
65751;SDS011;52486;51.098;13.770;2023-04-25T13:31:06;5.78;;;1.65;;
65751;SDS011;52486;51.098;13.770;2023-04-25T13:33:35;4.78;;;1.75;;
65751;SDS011;52486;51.098;13.770;2023-04-25T13:36:00;3.40;;;1.55;;
65751;SDS011;52486;51.098;13.770;2023-04-25T13:38:26;4.55;;;1.70;;
65751;SDS011;52486;51.098;13.770;2023-04-25T13:40:52;3.88;;;1.48;;
65751;SDS011;52486;51.098;13.770;2023-04-25T13:43:19;5.22;;;1.50;;
65751;SDS011;52486;51.098;13.770;2023-04-25T13:45:47;4.25;;;1.70;;
65751;SDS011;52486;51.098;13.770;2023-04-25T13:48:13;13.77;;;1.77;;
65751;SDS011;52486;51.098;13.770;2023-04-25T13:50:39;4.57;;;1.48;;
65751;SDS011;52486;51.098;13.770;2023-04-25T13:53:05;4.82;;;1.48;;
65751;SDS011;52486;51.098;13.770;2023-04-25T13:55:31;5.22;;;1.52;;
65751;SDS011;52486;51.098;13.770;2023-04-25T13:57:58;4.55;;;1.58;;
65751;SDS011;52486;51.098;13.770;2023-04-25T14:00:24;4.10;;;1.52;;
65751;SDS011;52486;51.098;13.770;2023-04-25T14:02:50;4.57;;;1.50;;
65751;SDS011;52486;51.098;13.770;2023-04-25T14:05:15;3.63;;;1.65;;
65751;SDS011;52486;51.098;13.770;2023-04-25T14:07:41;7.68;;;1.60;;
65751;SDS011;52486;51.098;13.770;2023-04-25T14:10:07;4.20;;;1.50;;
65751;SDS011;52486;51.098;13.770;2023-04-25T14:12:34;4.72;;;1.60;;
65751;SDS011;52486;51.098;13.770;2023-04-25T14:15:01;4.78;;;1.70;;
65751;SDS011;52486;51.098;13.770;2023-04-25T14:17:27;4.25;;;1.70;;
65751;SDS011;52486;51.098;13.770;2023-04-25T14:19:52;6.82;;;1.90;;
65751;SDS011;52486;51.098;13.770;2023-04-25T14:22:18;8.25;;;1.90;;
65751;SDS011;52486;51.098;13.770;2023-04-25T14:24:44;20.63;;;2.35;;
65751;SDS011;52486;51.098;13.770;2023-04-25T14:27:10;12.82;;;2.53;;
65751;SDS011;52486;51.098;13.770;2023-04-25T14:29:37;5.82;;;1.85;;
65751;SDS011;52486;51.098;13.770;2023-04-25T14:32:02;10.95;;;2.50;;
65751;SDS011;52486;51.098;13.770;2023-04-25T14:34:28;5.82;;;2.00;;
65751;SDS011;52486;51.098;13.770;2023-04-25T14:36:54;6.00;;;2.17;;
65751;SDS011;52486;51.098;13.770;2023-04-25T14:39:20;6.55;;;2.28;;
65751;SDS011;52486;51.098;13.770;2023-04-25T14:41:45;11.18;;;2.53;;
65751;SDS011;52486;51.098;13.770;2023-04-25T14:44:11;6.85;;;2.03;;